createdAt,value
2022-11-27T00:01:25.515Z,82.30
2022-11-27T00:03:53.172Z,81.03
2022-11-27T00:06:22.774Z,81.63
2022-11-27T00:08:49.600Z,81.34
2022-11-27T00:11:21.603Z,81.11
2022-11-27T00:13:49.694Z,81.12
2022-11-27T00:16:16.922Z,80.99
2022-11-27T00:18:43.949Z,80.12
2022-11-27T00:21:13.813Z,80.22
2022-11-27T00:23:43.375Z,80.28
2022-11-27T00:26:14.943Z,79.29
2022-11-27T00:28:41.497Z,79.60
2022-11-27T00:31:17.639Z,78.51
2022-11-27T00:33:45.178Z,79.27
2022-11-27T00:36:12.656Z,79.30
2022-11-27T00:38:39.498Z,79.80
2022-11-27T00:41:15.894Z,79.18
2022-11-27T00:43:44.917Z,78.92
2022-11-27T00:46:16.256Z,78.82
2022-11-27T00:48:43.492Z,78.83
2022-11-27T00:51:12.680Z,79.51
2022-11-27T00:53:39.429Z,79.27
2022-11-27T00:56:06.014Z,79.58
2022-11-27T00:58:32.436Z,79.47
2022-11-27T01:01:01.508Z,79.57
2022-11-27T01:03:29.995Z,79.28
2022-11-27T01:05:56.711Z,79.16
2022-11-27T01:08:25.323Z,79.55
2022-11-27T01:10:55.143Z,79.71
2022-11-27T01:13:27.331Z,79.22
2022-11-27T01:16:08.151Z,78.84
2022-11-27T01:18:39.267Z,79.65
2022-11-27T01:21:06.306Z,79.06
2022-11-27T01:23:32.841Z,78.78
2022-11-27T01:26:07.012Z,79.84
2022-11-27T01:28:34.672Z,79.57
2022-11-27T01:31:13.495Z,79.51
2022-11-27T01:33:39.990Z,79.34
2022-11-27T01:36:08.515Z,79.38
2022-11-27T01:38:35.066Z,79.23
2022-11-27T01:41:07.828Z,79.54
2022-11-27T01:43:52.869Z,79.51
2022-11-27T01:46:37.099Z,79.90
2022-11-27T01:49:09.333Z,79.73
2022-11-27T01:51:41.120Z,79.66
2022-11-27T01:54:09.900Z,79.89
2022-11-27T01:56:36.976Z,80.15
2022-11-27T01:59:04.052Z,80.48
2022-11-27T02:01:30.691Z,80.32
2022-11-27T02:03:59.498Z,80.87
2022-11-27T02:06:26.240Z,80.78
2022-11-27T02:08:53.336Z,80.77
2022-11-27T02:11:33.641Z,81.18
2022-11-27T02:14:24.165Z,80.95
2022-11-27T02:17:10.735Z,81.36
2022-11-27T02:20:07.375Z,81.44
2022-11-27T02:22:51.949Z,81.51
2022-11-27T02:25:52.837Z,82.07
2022-11-27T02:28:37.403Z,82.19
2022-11-27T02:31:13.004Z,82.28
2022-11-27T02:33:45.158Z,82.33
2022-11-27T02:36:18.865Z,82.42
2022-11-27T02:38:53.108Z,82.53
2022-11-27T02:41:24.755Z,82.21
2022-11-27T02:43:52.945Z,82.53
2022-11-27T02:46:20.689Z,82.37
2022-11-27T02:48:54.733Z,82.70
2022-11-27T02:51:58.970Z,83.09
2022-11-27T02:54:29.058Z,82.61
2022-11-27T02:56:58.223Z,82.82
2022-11-27T02:59:29.419Z,82.54
2022-11-27T03:02:00.651Z,82.60
2022-11-27T03:04:34.388Z,82.71
2022-11-27T03:07:06.932Z,82.53
2022-11-27T03:09:38.747Z,81.92
2022-11-27T03:12:06.999Z,82.44
2022-11-27T03:14:36.029Z,82.36
2022-11-27T03:17:52.464Z,82.05
2022-11-27T03:20:30.426Z,82.08
2022-11-27T03:22:57.227Z,82.34
2022-11-27T03:25:24.508Z,82.48
2022-11-27T03:28:02.481Z,82.47
2022-11-27T03:30:28.920Z,82.56
2022-11-27T03:32:55.897Z,82.91
2022-11-27T03:35:26.294Z,82.81
2022-11-27T03:37:52.996Z,83.18
2022-11-27T03:40:20.325Z,83.33
2022-11-27T03:43:03.731Z,82.81
2022-11-27T03:45:48.419Z,82.77
2022-11-27T03:48:17.488Z,83.06
2022-11-27T03:50:58.916Z,83.14
2022-11-27T03:53:56.211Z,83.28
2022-11-27T03:56:43.894Z,83.18
2022-11-27T03:59:17.097Z,83.15
2022-11-27T04:01:43.575Z,83.53
2022-11-27T04:04:10.140Z,83.73
2022-11-27T04:06:36.606Z,83.78
2022-11-27T04:09:03.984Z,83.84
2022-11-27T04:11:30.454Z,84.08
2022-11-27T04:13:56.839Z,84.28
2022-11-27T04:16:23.262Z,84.67
2022-11-27T04:18:49.729Z,84.88
2022-11-27T04:21:17.021Z,84.61
2022-11-27T04:23:43.995Z,84.59
2022-11-27T04:26:10.862Z,84.92
2022-11-27T04:28:37.296Z,84.72
2022-11-27T04:31:03.967Z,84.87
2022-11-27T04:33:30.494Z,84.65
2022-11-27T04:35:56.852Z,85.24
2022-11-27T04:38:23.283Z,85.25
2022-11-27T04:40:51.789Z,85.22
2022-11-27T04:43:18.168Z,85.63
2022-11-27T04:45:44.688Z,85.99
2022-11-27T04:48:11.142Z,85.71
2022-11-27T04:50:37.567Z,85.76
2022-11-27T04:53:04.104Z,85.57
2022-11-27T04:55:30.493Z,85.72
2022-11-27T04:57:56.872Z,85.37
2022-11-27T05:00:23.329Z,85.35
2022-11-27T05:02:49.768Z,85.08
2022-11-27T05:05:17.202Z,84.85
2022-11-27T05:07:43.686Z,85.05
2022-11-27T05:10:10.516Z,85.08
2022-11-27T05:12:36.897Z,84.67
2022-11-27T05:15:04.807Z,85.17
2022-11-27T05:17:31.708Z,84.90
2022-11-27T05:19:58.067Z,85.26
2022-11-27T05:22:24.425Z,85.38
2022-11-27T05:24:50.775Z,85.70
2022-11-27T05:27:17.151Z,85.63
2022-11-27T05:29:43.783Z,85.63
2022-11-27T05:32:10.153Z,85.49
2022-11-27T05:34:36.526Z,85.67
2022-11-27T05:37:02.991Z,86.06
2022-11-27T05:39:29.332Z,85.64
2022-11-27T05:41:55.712Z,85.85
2022-11-27T05:44:22.060Z,85.65
2022-11-27T05:46:48.475Z,85.39
2022-11-27T05:49:16.474Z,85.30
2022-11-27T05:51:50.424Z,85.32
2022-11-27T05:54:17.367Z,85.60
2022-11-27T05:56:43.720Z,85.26
2022-11-27T05:59:10.795Z,84.97
2022-11-27T06:01:37.209Z,84.97
2022-11-27T06:04:03.673Z,85.45
2022-11-27T06:06:30.699Z,85.65
2022-11-27T06:08:57.055Z,85.67
2022-11-27T06:11:23.866Z,85.68
2022-11-27T06:13:50.959Z,85.44
2022-11-27T06:16:19.972Z,85.76
2022-11-27T06:18:50.036Z,85.73
2022-11-27T06:21:16.990Z,85.37
2022-11-27T06:23:44.435Z,85.60
2022-11-27T06:26:11.423Z,85.77
2022-11-27T06:28:37.823Z,85.17
2022-11-27T06:31:17.468Z,85.57
2022-11-27T06:33:44.407Z,85.74
2022-11-27T06:36:10.752Z,85.50
2022-11-27T06:38:38.346Z,85.29
2022-11-27T06:41:06.749Z,85.14
2022-11-27T06:43:34.480Z,85.92
2022-11-27T06:46:02.176Z,85.11
2022-11-27T06:48:29.278Z,84.34
2022-11-27T06:50:59.287Z,84.69
2022-11-27T06:53:25.644Z,84.90
2022-11-27T06:55:52.001Z,84.87
2022-11-27T06:58:18.349Z,85.09
2022-11-27T07:00:44.757Z,85.52
2022-11-27T07:03:11.177Z,85.23
2022-11-27T07:05:37.652Z,85.52
2022-11-27T07:08:04.804Z,85.63
2022-11-27T07:10:34.982Z,85.61
2022-11-27T07:13:01.823Z,85.88
2022-11-27T07:15:28.540Z,86.09
2022-11-27T07:17:54.885Z,86.16
2022-11-27T07:20:21.271Z,86.18
2022-11-27T07:22:47.633Z,86.54
2022-11-27T07:25:14.004Z,85.83
2022-11-27T07:27:40.461Z,86.18
2022-11-27T07:30:07.667Z,86.30
2022-11-27T07:32:34.091Z,86.48
2022-11-27T07:35:00.479Z,85.73
2022-11-27T07:37:29.944Z,85.73
2022-11-27T07:40:02.682Z,85.67
2022-11-27T07:42:38.011Z,85.53
2022-11-27T07:45:05.711Z,85.75
2022-11-27T07:47:32.107Z,85.96
2022-11-27T07:50:00.248Z,86.08
2022-11-27T07:52:27.067Z,86.14
2022-11-27T07:54:53.613Z,86.92
2022-11-27T07:57:20.144Z,87.13
2022-11-27T07:59:47.680Z,86.90
2022-11-27T08:02:14.563Z,87.04
2022-11-27T08:04:41.220Z,87.16
2022-11-27T08:07:07.800Z,87.40
2022-11-27T08:09:34.220Z,87.80
2022-11-27T08:12:00.655Z,88.04
2022-11-27T08:14:27.236Z,87.79
2022-11-27T08:16:53.697Z,87.63
2022-11-27T08:19:20.103Z,87.83
2022-11-27T08:21:46.751Z,88.03
2022-11-27T08:24:13.168Z,87.86
2022-11-27T08:26:39.953Z,87.83
2022-11-27T08:29:06.671Z,88.27
2022-11-27T08:31:33.956Z,87.97
2022-11-27T08:34:00.490Z,88.43
2022-11-27T08:36:27.237Z,88.21
2022-11-27T08:38:55.144Z,88.39
2022-11-27T08:41:21.752Z,88.21
2022-11-27T08:43:48.159Z,88.25
2022-11-27T08:46:14.570Z,88.58
2022-11-27T08:48:41.893Z,88.16
2022-11-27T08:51:14.710Z,88.55
2022-11-27T08:53:44.054Z,88.76
2022-11-27T08:56:15.489Z,88.82
2022-11-27T08:58:41.939Z,88.77
2022-11-27T09:01:14.180Z,88.34
2022-11-27T09:03:40.642Z,88.52
2022-11-27T09:06:12.965Z,88.88
2022-11-27T09:08:40.880Z,88.31
2022-11-27T09:11:07.901Z,88.67
2022-11-27T09:13:36.943Z,88.32
2022-11-27T09:16:04.532Z,88.23
2022-11-27T09:18:31.281Z,88.30
2022-11-27T09:21:07.206Z,88.42
2022-11-27T09:23:34.040Z,88.35
2022-11-27T09:26:02.591Z,87.92
2022-11-27T09:28:31.654Z,88.11
2022-11-27T09:31:00.580Z,87.90
2022-11-27T09:33:28.849Z,87.91
2022-11-27T09:35:55.600Z,88.00
2022-11-27T09:38:23.589Z,87.49
2022-11-27T09:41:03.140Z,87.38
2022-11-27T09:43:34.172Z,88.04
2022-11-27T09:46:09.010Z,88.07
2022-11-27T09:48:39.871Z,87.79
2022-11-27T09:51:13.935Z,87.93
2022-11-27T09:53:49.642Z,87.86
2022-11-27T09:56:17.917Z,87.92
2022-11-27T09:58:55.994Z,87.65
2022-11-27T10:01:41.917Z,87.87
2022-11-27T10:04:14.013Z,87.15
2022-11-27T10:06:55.142Z,86.97
2022-11-27T10:09:50.324Z,87.26
2022-11-27T10:12:25.680Z,86.80
2022-11-27T10:15:01.053Z,87.03
2022-11-27T10:17:31.570Z,87.05
2022-11-27T10:20:13.553Z,86.44
2022-11-27T10:22:44.816Z,86.61
2022-11-27T10:25:21.741Z,86.13
2022-11-27T10:28:10.158Z,86.00
2022-11-27T10:30:58.930Z,85.57
2022-11-27T10:33:31.785Z,85.95
2022-11-27T10:35:59.764Z,85.71
2022-11-27T10:38:28.533Z,85.67
2022-11-27T10:41:49.736Z,84.98
2022-11-27T10:44:23.654Z,84.15
2022-11-27T10:46:54.415Z,84.11
2022-11-27T10:49:20.904Z,83.53
2022-11-27T10:51:47.281Z,83.83
2022-11-27T10:54:23.455Z,83.84
2022-11-27T10:57:00.604Z,83.44
2022-11-27T10:59:34.638Z,83.40
2022-11-27T11:02:03.258Z,82.79
2022-11-27T11:04:39.239Z,82.64
2022-11-27T11:07:23.510Z,82.54
2022-11-27T11:09:50.061Z,82.61
2022-11-27T11:12:21.026Z,82.73
2022-11-27T11:15:11.362Z,82.16
2022-11-27T11:17:38.288Z,81.21
2022-11-27T11:20:24.409Z,81.39
2022-11-27T11:22:51.464Z,79.61
2022-11-27T11:25:21.074Z,79.37
2022-11-27T11:27:50.136Z,78.86
2022-11-27T11:30:26.377Z,79.24
2022-11-27T11:33:01.590Z,78.33
2022-11-27T11:35:37.026Z,78.60
2022-11-27T11:38:06.067Z,78.65
2022-11-27T11:40:37.390Z,78.25
2022-11-27T11:43:25.155Z,77.53
2022-11-27T11:45:51.526Z,77.24
2022-11-27T11:48:25.113Z,77.57
2022-11-27T11:50:55.508Z,76.76
2022-11-27T11:53:22.291Z,77.02
2022-11-27T11:56:16.584Z,76.60
2022-11-27T11:58:57.891Z,76.84
2022-11-27T12:01:54.134Z,76.63
2022-11-27T12:04:23.369Z,76.56
2022-11-27T12:07:01.893Z,76.23
2022-11-27T12:09:49.423Z,76.27
2022-11-27T12:12:21.390Z,76.90
2022-11-27T12:15:04.007Z,76.66
2022-11-27T12:17:35.871Z,76.66
2022-11-27T12:20:05.235Z,76.54
2022-11-27T12:22:46.837Z,76.45
2022-11-27T12:25:30.279Z,75.46
2022-11-27T12:28:06.102Z,75.92
2022-11-27T12:30:39.814Z,76.96
2022-11-27T12:33:26.881Z,75.19
2022-11-27T12:36:41.446Z,74.70
2022-11-27T12:39:16.141Z,75.17
2022-11-27T12:42:01.050Z,75.69
2022-11-27T12:45:03.827Z,75.23
2022-11-27T12:47:46.751Z,74.53
2022-11-27T12:50:43.657Z,74.39
2022-11-27T12:53:20.171Z,74.17
2022-11-27T12:56:16.762Z,73.53
2022-11-27T12:58:47.666Z,73.61
2022-11-27T13:01:25.053Z,74.16
2022-11-27T13:04:29.907Z,74.31
2022-11-27T13:07:28.930Z,73.96
2022-11-27T13:09:58.099Z,73.91
2022-11-27T13:12:30.614Z,74.29
2022-11-27T13:15:08.566Z,74.33
2022-11-27T13:17:42.470Z,74.04
2022-11-27T13:20:20.041Z,73.54
2022-11-27T13:22:48.186Z,74.41
2022-11-27T13:25:15.117Z,73.13
2022-11-27T13:27:46.564Z,73.40
2022-11-27T13:30:22.621Z,73.32
2022-11-27T13:32:53.892Z,72.39
2022-11-27T13:35:36.604Z,72.63
2022-11-27T13:38:19.088Z,72.53
2022-11-27T13:40:48.694Z,72.54
2022-11-27T13:43:41.197Z,72.68
2022-11-27T13:46:16.084Z,72.52
2022-11-27T13:48:49.038Z,72.12
2022-11-27T13:51:25.425Z,72.04
2022-11-27T13:53:51.839Z,71.69
2022-11-27T13:56:30.129Z,71.83
2022-11-27T13:58:56.659Z,71.49
2022-11-27T14:01:25.037Z,71.66
2022-11-27T14:03:52.177Z,71.16
2022-11-27T14:06:23.739Z,71.37
2022-11-27T14:08:54.710Z,71.16
2022-11-27T14:11:42.812Z,71.08
2022-11-27T14:14:21.170Z,71.37
2022-11-27T14:17:00.123Z,71.55
2022-11-27T14:19:34.013Z,71.74
2022-11-27T14:22:02.105Z,71.94
2022-11-27T14:24:43.807Z,71.29
2022-11-27T14:27:20.352Z,71.11
2022-11-27T14:29:47.566Z,71.54
2022-11-27T14:32:15.861Z,71.75
2022-11-27T14:34:43.121Z,71.76
2022-11-27T14:37:27.560Z,71.52
2022-11-27T14:39:54.736Z,71.94
2022-11-27T14:42:35.199Z,72.04
2022-11-27T14:45:12.367Z,71.92
2022-11-27T14:47:45.258Z,72.36
2022-11-27T14:50:14.265Z,72.30
2022-11-27T14:52:43.788Z,71.81
2022-11-27T14:55:16.164Z,71.66
2022-11-27T14:57:44.139Z,71.56
2022-11-27T15:00:20.559Z,72.15
2022-11-27T15:02:49.818Z,71.69
2022-11-27T15:05:28.669Z,71.38
2022-11-27T15:07:57.970Z,71.68
2022-11-27T15:10:32.444Z,71.64
2022-11-27T15:13:01.115Z,71.69
2022-11-27T15:15:30.219Z,72.36
2022-11-27T15:18:01.041Z,72.43
2022-11-27T15:20:44.732Z,72.38
2022-11-27T15:23:17.950Z,72.93
2022-11-27T15:25:48.113Z,73.30
2022-11-27T15:28:23.503Z,73.83
2022-11-27T15:30:50.573Z,74.46
2022-11-27T15:33:28.443Z,74.82
2022-11-27T15:36:16.235Z,75.39
2022-11-27T15:38:43.421Z,75.53
2022-11-27T15:41:25.962Z,75.83
2022-11-27T15:43:52.747Z,75.88
2022-11-27T15:46:25.032Z,76.32
2022-11-27T15:48:51.995Z,76.03
2022-11-27T15:51:18.474Z,75.89
2022-11-27T15:53:45.101Z,76.54
2022-11-27T15:56:11.453Z,76.77
2022-11-27T15:58:37.856Z,77.22
2022-11-27T16:01:05.845Z,77.30
2022-11-27T16:03:32.220Z,77.21
2022-11-27T16:06:05.923Z,77.17
2022-11-27T16:08:32.379Z,77.46
2022-11-27T16:11:03.605Z,77.54
2022-11-27T16:13:30.059Z,77.94
2022-11-27T16:16:04.590Z,77.99
2022-11-27T16:18:32.194Z,77.85
2022-11-27T16:21:03.807Z,78.52
2022-11-27T16:23:30.340Z,78.03
2022-11-27T16:25:56.800Z,77.93
2022-11-27T16:28:23.146Z,78.18
2022-11-27T16:30:51.980Z,77.89
2022-11-27T16:33:19.836Z,78.11
2022-11-27T16:35:46.187Z,78.45
2022-11-27T16:38:12.861Z,78.35
2022-11-27T16:40:39.468Z,78.75
2022-11-27T16:43:05.821Z,78.57
2022-11-27T16:45:35.841Z,78.77
2022-11-27T16:48:02.806Z,78.67
2022-11-27T16:50:30.657Z,78.91
2022-11-27T16:52:57.612Z,78.83
2022-11-27T16:55:25.142Z,78.76
2022-11-27T16:57:51.844Z,79.17
2022-11-27T17:00:18.844Z,79.24
2022-11-27T17:02:45.250Z,79.25
2022-11-27T17:05:11.643Z,79.16
2022-11-27T17:07:38.073Z,79.30
2022-11-27T17:10:04.950Z,79.20
2022-11-27T17:12:32.629Z,79.72
2022-11-27T17:14:58.974Z,79.79
2022-11-27T17:17:25.452Z,79.82
2022-11-27T17:19:55.035Z,79.74
2022-11-27T17:22:21.378Z,79.70
2022-11-27T17:24:47.749Z,80.43
2022-11-27T17:27:14.697Z,79.93
2022-11-27T17:29:41.208Z,80.17
2022-11-27T17:32:09.861Z,80.51
2022-11-27T17:34:36.345Z,80.79
2022-11-27T17:37:02.784Z,80.73
2022-11-27T17:39:29.161Z,80.68
2022-11-27T17:41:55.531Z,80.47
2022-11-27T17:44:21.988Z,80.87
2022-11-27T17:46:50.522Z,80.84
2022-11-27T17:49:17.090Z,81.06
2022-11-27T17:51:43.770Z,80.99
2022-11-27T17:54:11.254Z,81.15
2022-11-27T17:56:37.628Z,80.87
2022-11-27T17:59:04.137Z,80.73
2022-11-27T18:01:30.871Z,81.09
2022-11-27T18:04:00.422Z,81.51
2022-11-27T18:06:27.193Z,81.20
2022-11-27T18:08:55.702Z,81.70
2022-11-27T18:11:24.508Z,81.53
2022-11-27T18:13:51.453Z,81.04
2022-11-27T18:16:25.148Z,81.09
2022-11-27T18:18:51.642Z,81.17
2022-11-27T18:21:19.783Z,81.11
2022-11-27T18:24:21.298Z,81.23
2022-11-27T18:27:06.556Z,81.42
2022-11-27T18:29:23.192Z,81.32
2022-11-27T18:31:51.026Z,81.13
2022-11-27T18:34:17.587Z,81.58
2022-11-27T18:36:45.054Z,81.67
2022-11-27T18:39:11.935Z,82.17
2022-11-27T18:41:38.375Z,81.84
2022-11-27T18:44:04.997Z,82.14
2022-11-27T18:46:31.483Z,81.95
2022-11-27T18:48:58.683Z,82.29
2022-11-27T18:51:26.424Z,81.98
2022-11-27T18:53:53.389Z,82.74
2022-11-27T18:56:22.707Z,82.74
2022-11-27T18:58:50.169Z,82.47
2022-11-27T19:01:25.690Z,82.76
2022-11-27T19:03:52.542Z,82.85
2022-11-27T19:06:21.421Z,83.58
2022-11-27T19:08:48.055Z,84.73
2022-11-27T19:11:17.309Z,83.26
2022-11-27T19:13:45.336Z,82.84
2022-11-27T19:16:17.715Z,82.98
2022-11-27T19:18:44.466Z,83.10
2022-11-27T19:21:12.911Z,83.15
2022-11-27T19:23:39.537Z,83.63
2022-11-27T19:26:23.699Z,83.75
2022-11-27T19:28:51.889Z,83.64
2022-11-27T19:31:18.608Z,83.65
2022-11-27T19:33:45.358Z,83.67
2022-11-27T19:36:13.666Z,83.83
2022-11-27T19:38:42.291Z,83.85
2022-11-27T19:41:17.598Z,84.09
2022-11-27T19:43:45.314Z,84.28
2022-11-27T19:46:16.657Z,84.08
2022-11-27T19:48:43.965Z,84.31
2022-11-27T19:51:10.743Z,84.48
2022-11-27T19:53:37.806Z,84.80
2022-11-27T19:56:04.886Z,84.58
2022-11-27T19:58:32.303Z,84.76
2022-11-27T20:01:09.903Z,85.20
2022-11-27T20:03:36.825Z,85.11
2022-11-27T20:06:09.982Z,84.91
2022-11-27T20:08:37.562Z,84.95
2022-11-27T20:11:07.385Z,84.40
2022-11-27T20:13:33.891Z,84.72
2022-11-27T20:16:00.395Z,84.84
2022-11-27T20:18:27.963Z,84.64
2022-11-27T20:21:05.276Z,84.63
2022-11-27T20:23:31.769Z,84.74
2022-11-27T20:25:58.663Z,84.65
2022-11-27T20:28:25.046Z,84.78
2022-11-27T20:30:59.309Z,84.65
2022-11-27T20:33:27.453Z,85.04
2022-11-27T20:35:55.081Z,84.80
2022-11-27T20:38:22.873Z,84.75
2022-11-27T20:40:50.567Z,84.67
2022-11-27T20:43:16.957Z,84.77
2022-11-27T20:45:43.506Z,84.93
2022-11-27T20:48:10.627Z,85.03
2022-11-27T20:50:38.981Z,85.05
2022-11-27T20:53:06.275Z,85.03
2022-11-27T20:55:33.877Z,84.99
2022-11-27T20:58:00.267Z,85.06
2022-11-27T21:00:26.954Z,85.22
2022-11-27T21:02:53.367Z,84.80
2022-11-27T21:05:20.090Z,85.01
2022-11-27T21:07:46.649Z,84.72
2022-11-27T21:10:16.207Z,85.14
2022-11-27T21:12:43.216Z,84.92
2022-11-27T21:15:10.298Z,84.90
2022-11-27T21:17:36.874Z,84.73
2022-11-27T21:20:04.310Z,85.23
2022-11-27T21:22:31.477Z,85.21
2022-11-27T21:24:57.926Z,85.18
2022-11-27T21:27:24.385Z,85.46
2022-11-27T21:29:50.906Z,85.04
2022-11-27T21:32:22.695Z,84.97
2022-11-27T21:34:49.183Z,85.17
2022-11-27T21:37:15.592Z,85.23
2022-11-27T21:39:44.091Z,85.15
2022-11-27T21:42:10.496Z,85.18
2022-11-27T21:44:41.258Z,85.45
2022-11-27T21:47:11.927Z,85.12
2022-11-27T21:49:41.567Z,85.18
2022-11-27T21:52:08.192Z,85.25
2022-11-27T21:54:34.851Z,85.22
2022-11-27T21:57:01.307Z,84.78
2022-11-27T21:59:27.838Z,84.86
2022-11-27T22:01:56.999Z,84.95
2022-11-27T22:04:24.809Z,85.00
2022-11-27T22:06:51.352Z,84.73
2022-11-27T22:09:18.327Z,84.63
2022-11-27T22:11:46.425Z,84.59
2022-11-27T22:14:14.831Z,84.22
2022-11-27T22:16:45.272Z,84.42
2022-11-27T22:19:12.748Z,83.93
2022-11-27T22:21:39.254Z,83.95
2022-11-27T22:24:06.063Z,83.71
2022-11-27T22:26:32.462Z,83.94
2022-11-27T22:28:59.209Z,83.79
2022-11-27T22:31:29.764Z,83.50
2022-11-27T22:33:57.197Z,83.36
2022-11-27T22:36:32.460Z,83.65
2022-11-27T22:39:00.964Z,83.28
2022-11-27T22:41:29.546Z,82.92
2022-11-27T22:43:56.297Z,83.09
2022-11-27T22:46:25.710Z,82.96
2022-11-27T22:48:54.705Z,82.55
2022-11-27T22:51:22.042Z,82.84
2022-11-27T22:53:48.545Z,82.72
2022-11-27T22:56:15.335Z,82.63
2022-11-27T22:58:42.419Z,82.08
2022-11-27T23:01:13.962Z,82.41
2022-11-27T23:03:40.450Z,82.22
2022-11-27T23:06:12.734Z,81.87
2022-11-27T23:08:40.913Z,82.01
2022-11-27T23:11:09.086Z,81.86
2022-11-27T23:13:35.795Z,81.51
2022-11-27T23:16:03.845Z,81.75
2022-11-27T23:18:30.342Z,81.82
2022-11-27T23:20:56.699Z,81.27
2022-11-27T23:23:24.029Z,81.27
2022-11-27T23:25:50.589Z,81.52
2022-11-27T23:28:17.006Z,81.00
2022-11-27T23:30:43.358Z,81.38
2022-11-27T23:33:09.756Z,81.17
2022-11-27T23:35:36.128Z,81.11
2022-11-27T23:38:03.419Z,81.49
2022-11-27T23:40:29.824Z,81.24
2022-11-27T23:42:56.201Z,81.46
2022-11-27T23:45:22.576Z,81.20
2022-11-27T23:47:50.365Z,81.59
2022-11-27T23:50:16.874Z,81.45
2022-11-27T23:52:43.315Z,81.58
2022-11-27T23:55:09.757Z,81.65
2022-11-27T23:57:36.134Z,81.32
